sensor_id;sensor_type;location;lat;lon;timestamp;temperature;humidity
56725;DHT22;42608;52.776;6.968;2023-02-23T00:01:27;8.00;99.90
56725;DHT22;42608;52.776;6.968;2023-02-23T00:03:56;8.00;99.90
56725;DHT22;42608;52.776;6.968;2023-02-23T00:06:23;8.00;99.90
56725;DHT22;42608;52.776;6.968;2023-02-23T00:08:49;8.00;99.90
56725;DHT22;42608;52.776;6.968;2023-02-23T00:11:17;8.00;99.90
56725;DHT22;42608;52.776;6.968;2023-02-23T00:13:45;8.00;99.90
56725;DHT22;42608;52.776;6.968;2023-02-23T00:16:18;8.00;99.90
56725;DHT22;42608;52.776;6.968;2023-02-23T00:18:46;8.00;99.90
56725;DHT22;42608;52.776;6.968;2023-02-23T00:21:21;8.00;99.90
56725;DHT22;42608;52.776;6.968;2023-02-23T00:26:14;8.00;99.90
56725;DHT22;42608;52.776;6.968;2023-02-23T00:28:43;8.00;99.90
56725;DHT22;42608;52.776;6.968;2023-02-23T00:31:09;8.00;99.90
56725;DHT22;42608;52.776;6.968;2023-02-23T00:33:36;8.00;99.90
56725;DHT22;42608;52.776;6.968;2023-02-23T00:36:09;8.00;99.90
56725;DHT22;42608;52.776;6.968;2023-02-23T00:38:36;8.00;99.90
56725;DHT22;42608;52.776;6.968;2023-02-23T00:41:07;8.00;99.90
56725;DHT22;42608;52.776;6.968;2023-02-23T00:43:37;8.00;99.90
56725;DHT22;42608;52.776;6.968;2023-02-23T00:46:04;8.00;99.90
56725;DHT22;42608;52.776;6.968;2023-02-23T00:48:33;8.00;99.90
56725;DHT22;42608;52.776;6.968;2023-02-23T00:51:04;8.00;99.90
56725;DHT22;42608;52.776;6.968;2023-02-23T00:53:30;7.90;99.90
56725;DHT22;42608;52.776;6.968;2023-02-23T00:55:56;7.90;99.90
56725;DHT22;42608;52.776;6.968;2023-02-23T00:58:24;7.90;99.90
56725;DHT22;42608;52.776;6.968;2023-02-23T01:00:51;7.90;99.90
56725;DHT22;42608;52.776;6.968;2023-02-23T01:03:17;7.90;99.90
56725;DHT22;42608;52.776;6.968;2023-02-23T01:05:43;7.90;99.90
56725;DHT22;42608;52.776;6.968;2023-02-23T01:08:09;7.90;99.90
56725;DHT22;42608;52.776;6.968;2023-02-23T01:10:39;7.90;99.90
56725;DHT22;42608;52.776;6.968;2023-02-23T01:13:09;7.90;99.90
56725;DHT22;42608;52.776;6.968;2023-02-23T01:15:42;7.90;99.90
56725;DHT22;42608;52.776;6.968;2023-02-23T01:18:09;7.90;99.90
56725;DHT22;42608;52.776;6.968;2023-02-23T01:20:36;7.90;99.90
56725;DHT22;42608;52.776;6.968;2023-02-23T01:23:03;7.90;99.90
56725;DHT22;42608;52.776;6.968;2023-02-23T01:25:29;8.00;99.90
56725;DHT22;42608;52.776;6.968;2023-02-23T01:27:54;8.00;99.90
56725;DHT22;42608;52.776;6.968;2023-02-23T01:30:20;8.00;99.90
56725;DHT22;42608;52.776;6.968;2023-02-23T01:32:47;8.00;99.90
56725;DHT22;42608;52.776;6.968;2023-02-23T01:35:13;8.00;99.90
56725;DHT22;42608;52.776;6.968;2023-02-23T01:37:41;8.00;99.90
56725;DHT22;42608;52.776;6.968;2023-02-23T01:40:20;8.00;99.90
56725;DHT22;42608;52.776;6.968;2023-02-23T01:42:57;8.00;99.90
56725;DHT22;42608;52.776;6.968;2023-02-23T01:45:33;8.00;99.90
56725;DHT22;42608;52.776;6.968;2023-02-23T01:48:16;8.00;99.90
56725;DHT22;42608;52.776;6.968;2023-02-23T01:53:26;8.00;99.90
56725;DHT22;42608;52.776;6.968;2023-02-23T01:55:56;8.00;99.90
56725;DHT22;42608;52.776;6.968;2023-02-23T01:58:24;8.00;99.90
56725;DHT22;42608;52.776;6.968;2023-02-23T02:00:54;8.00;99.90
56725;DHT22;42608;52.776;6.968;2023-02-23T02:03:39;8.00;99.90
56725;DHT22;42608;52.776;6.968;2023-02-23T02:06:07;8.00;99.90
56725;DHT22;42608;52.776;6.968;2023-02-23T02:08:35;8.00;99.90
56725;DHT22;42608;52.776;6.968;2023-02-23T02:11:11;8.00;99.90
56725;DHT22;42608;52.776;6.968;2023-02-23T02:13:56;8.00;99.90
56725;DHT22;42608;52.776;6.968;2023-02-23T02:19:21;8.00;99.90
56725;DHT22;42608;52.776;6.968;2023-02-23T02:31:16;8.00;99.90
56725;DHT22;42608;52.776;6.968;2023-02-23T02:47:38;7.90;99.90
56725;DHT22;42608;52.776;6.968;2023-02-23T02:50:10;7.90;99.90
56725;DHT22;42608;52.776;6.968;2023-02-23T02:52:43;7.90;99.90
56725;DHT22;42608;52.776;6.968;2023-02-23T02:57:38;7.90;99.90
56725;DHT22;42608;52.776;6.968;2023-02-23T03:00:05;7.90;99.90
56725;DHT22;42608;52.776;6.968;2023-02-23T03:02:49;7.90;99.90
56725;DHT22;42608;52.776;6.968;2023-02-23T03:11:37;7.90;99.90
56725;DHT22;42608;52.776;6.968;2023-02-23T03:14:59;7.90;99.90
56725;DHT22;42608;52.776;6.968;2023-02-23T03:17:43;7.90;99.90
56725;DHT22;42608;52.776;6.968;2023-02-23T03:27:09;7.90;99.90
56725;DHT22;42608;52.776;6.968;2023-02-23T03:30:08;7.90;99.90
56725;DHT22;42608;52.776;6.968;2023-02-23T03:32:49;7.90;99.90
56725;DHT22;42608;52.776;6.968;2023-02-23T03:35:54;7.90;99.90
56725;DHT22;42608;52.776;6.968;2023-02-23T03:38:45;7.90;99.90
56725;DHT22;42608;52.776;6.968;2023-02-23T03:41:32;7.90;99.90
56725;DHT22;42608;52.776;6.968;2023-02-23T03:44:24;7.80;99.90
56725;DHT22;42608;52.776;6.968;2023-02-23T03:47:12;7.90;99.90
56725;DHT22;42608;52.776;6.968;2023-02-23T03:50:01;7.90;99.90
56725;DHT22;42608;52.776;6.968;2023-02-23T03:52:55;7.90;99.90
56725;DHT22;42608;52.776;6.968;2023-02-23T03:55:44;7.90;99.90
56725;DHT22;42608;52.776;6.968;2023-02-23T03:58:34;7.80;99.90
56725;DHT22;42608;52.776;6.968;2023-02-23T04:01:20;7.90;99.90
56725;DHT22;42608;52.776;6.968;2023-02-23T04:04:08;7.80;99.90
56725;DHT22;42608;52.776;6.968;2023-02-23T04:06:55;7.80;99.90
56725;DHT22;42608;52.776;6.968;2023-02-23T04:09:40;7.80;99.90
56725;DHT22;42608;52.776;6.968;2023-02-23T04:12:37;7.80;99.90
56725;DHT22;42608;52.776;6.968;2023-02-23T04:15:33;7.80;99.90
56725;DHT22;42608;52.776;6.968;2023-02-23T04:18:06;7.80;99.90
56725;DHT22;42608;52.776;6.968;2023-02-23T04:20:32;7.80;99.90
56725;DHT22;42608;52.776;6.968;2023-02-23T04:22:58;7.80;99.90
56725;DHT22;42608;52.776;6.968;2023-02-23T04:25:24;7.80;99.90
56725;DHT22;42608;52.776;6.968;2023-02-23T04:27:51;7.80;99.90
56725;DHT22;42608;52.776;6.968;2023-02-23T04:30:17;7.80;99.90
56725;DHT22;42608;52.776;6.968;2023-02-23T04:32:43;7.80;99.90
56725;DHT22;42608;52.776;6.968;2023-02-23T04:35:11;7.80;99.90
56725;DHT22;42608;52.776;6.968;2023-02-23T04:37:37;7.80;99.90
56725;DHT22;42608;52.776;6.968;2023-02-23T04:40:04;7.80;99.90
56725;DHT22;42608;52.776;6.968;2023-02-23T04:42:29;7.80;99.90
56725;DHT22;42608;52.776;6.968;2023-02-23T04:44:55;7.80;99.90
56725;DHT22;42608;52.776;6.968;2023-02-23T04:47:21;7.80;99.90
56725;DHT22;42608;52.776;6.968;2023-02-23T04:49:47;7.80;99.90
56725;DHT22;42608;52.776;6.968;2023-02-23T04:52:12;7.80;99.90
56725;DHT22;42608;52.776;6.968;2023-02-23T04:54:39;7.80;99.90
56725;DHT22;42608;52.776;6.968;2023-02-23T04:57:05;7.80;99.90
56725;DHT22;42608;52.776;6.968;2023-02-23T04:59:31;7.80;99.90
56725;DHT22;42608;52.776;6.968;2023-02-23T05:01:57;7.80;99.90
56725;DHT22;42608;52.776;6.968;2023-02-23T05:04:22;7.80;99.90
56725;DHT22;42608;52.776;6.968;2023-02-23T05:06:49;7.80;99.90
56725;DHT22;42608;52.776;6.968;2023-02-23T05:09:15;7.80;99.90
56725;DHT22;42608;52.776;6.968;2023-02-23T05:11:41;7.80;99.90
56725;DHT22;42608;52.776;6.968;2023-02-23T05:14:06;7.80;99.90
56725;DHT22;42608;52.776;6.968;2023-02-23T05:16:32;7.80;99.90
56725;DHT22;42608;52.776;6.968;2023-02-23T05:18:58;7.80;99.90
56725;DHT22;42608;52.776;6.968;2023-02-23T05:21:23;7.80;99.90
56725;DHT22;42608;52.776;6.968;2023-02-23T05:23:49;7.80;99.90
56725;DHT22;42608;52.776;6.968;2023-02-23T05:26:16;7.80;99.90
56725;DHT22;42608;52.776;6.968;2023-02-23T05:28:42;7.80;99.90
56725;DHT22;42608;52.776;6.968;2023-02-23T05:31:08;7.80;99.90
56725;DHT22;42608;52.776;6.968;2023-02-23T05:33:36;7.80;99.90
56725;DHT22;42608;52.776;6.968;2023-02-23T05:36:09;7.80;99.90
56725;DHT22;42608;52.776;6.968;2023-02-23T05:38:36;7.80;99.90
56725;DHT22;42608;52.776;6.968;2023-02-23T05:41:07;7.80;99.90
56725;DHT22;42608;52.776;6.968;2023-02-23T05:43:33;7.80;99.90
56725;DHT22;42608;52.776;6.968;2023-02-23T05:45:59;7.80;99.90
56725;DHT22;42608;52.776;6.968;2023-02-23T05:48:26;7.80;99.90
56725;DHT22;42608;52.776;6.968;2023-02-23T05:50:52;7.80;99.90
56725;DHT22;42608;52.776;6.968;2023-02-23T05:53:18;7.80;99.90
56725;DHT22;42608;52.776;6.968;2023-02-23T05:55:44;7.80;99.90
56725;DHT22;42608;52.776;6.968;2023-02-23T05:58:09;7.80;99.90
56725;DHT22;42608;52.776;6.968;2023-02-23T06:00:35;7.80;99.90
56725;DHT22;42608;52.776;6.968;2023-02-23T06:03:01;7.80;99.90
56725;DHT22;42608;52.776;6.968;2023-02-23T06:05:26;7.80;99.90
56725;DHT22;42608;52.776;6.968;2023-02-23T06:07:53;7.70;99.90
56725;DHT22;42608;52.776;6.968;2023-02-23T06:10:18;7.70;99.90
56725;DHT22;42608;52.776;6.968;2023-02-23T06:12:44;7.70;99.90
56725;DHT22;42608;52.776;6.968;2023-02-23T06:15:10;7.70;99.90
56725;DHT22;42608;52.776;6.968;2023-02-23T06:17:36;7.70;99.90
56725;DHT22;42608;52.776;6.968;2023-02-23T06:20:03;7.70;99.90
56725;DHT22;42608;52.776;6.968;2023-02-23T06:22:29;7.70;99.90
56725;DHT22;42608;52.776;6.968;2023-02-23T06:24:55;7.60;99.90
56725;DHT22;42608;52.776;6.968;2023-02-23T06:27:21;7.70;99.90
56725;DHT22;42608;52.776;6.968;2023-02-23T06:29:47;7.60;99.90
56725;DHT22;42608;52.776;6.968;2023-02-23T06:32:12;7.60;99.90
56725;DHT22;42608;52.776;6.968;2023-02-23T06:34:38;7.60;99.90
56725;DHT22;42608;52.776;6.968;2023-02-23T06:37:05;7.60;99.90
56725;DHT22;42608;52.776;6.968;2023-02-23T06:39:30;7.60;99.90
56725;DHT22;42608;52.776;6.968;2023-02-23T06:41:56;7.60;99.90
56725;DHT22;42608;52.776;6.968;2023-02-23T06:44:22;7.70;99.90
56725;DHT22;42608;52.776;6.968;2023-02-23T06:46:48;7.60;99.90
56725;DHT22;42608;52.776;6.968;2023-02-23T06:49:13;7.60;99.90
56725;DHT22;42608;52.776;6.968;2023-02-23T06:51:39;7.70;99.90
56725;DHT22;42608;52.776;6.968;2023-02-23T06:54:05;7.60;99.90
56725;DHT22;42608;52.776;6.968;2023-02-23T06:56:30;7.60;99.90
56725;DHT22;42608;52.776;6.968;2023-02-23T06:58:56;7.60;99.90
56725;DHT22;42608;52.776;6.968;2023-02-23T07:01:22;7.60;99.90
56725;DHT22;42608;52.776;6.968;2023-02-23T07:03:47;7.60;99.90
56725;DHT22;42608;52.776;6.968;2023-02-23T07:06:13;7.60;99.90
56725;DHT22;42608;52.776;6.968;2023-02-23T07:08:39;7.60;99.90
56725;DHT22;42608;52.776;6.968;2023-02-23T07:11:09;7.60;99.90
56725;DHT22;42608;52.776;6.968;2023-02-23T07:13:36;7.60;99.90
56725;DHT22;42608;52.776;6.968;2023-02-23T07:16:02;7.50;99.90
56725;DHT22;42608;52.776;6.968;2023-02-23T07:18:28;7.60;99.90
56725;DHT22;42608;52.776;6.968;2023-02-23T07:20:54;7.50;99.90
56725;DHT22;42608;52.776;6.968;2023-02-23T07:23:19;7.50;99.90
56725;DHT22;42608;52.776;6.968;2023-02-23T07:25:51;7.50;99.90
56725;DHT22;42608;52.776;6.968;2023-02-23T07:28:17;7.50;99.90
56725;DHT22;42608;52.776;6.968;2023-02-23T07:30:43;7.50;99.90
56725;DHT22;42608;52.776;6.968;2023-02-23T07:33:09;7.50;99.90
56725;DHT22;42608;52.776;6.968;2023-02-23T07:35:35;7.60;99.90
56725;DHT22;42608;52.776;6.968;2023-02-23T07:38:00;7.50;99.90
56725;DHT22;42608;52.776;6.968;2023-02-23T07:40:26;7.50;99.90
56725;DHT22;42608;52.776;6.968;2023-02-23T07:42:52;7.50;99.90
56725;DHT22;42608;52.776;6.968;2023-02-23T07:45:19;7.60;99.90
56725;DHT22;42608;52.776;6.968;2023-02-23T07:47:45;7.50;99.90
56725;DHT22;42608;52.776;6.968;2023-02-23T07:50:11;7.60;99.90
56725;DHT22;42608;52.776;6.968;2023-02-23T07:52:39;7.50;99.90
56725;DHT22;42608;52.776;6.968;2023-02-23T07:55:06;7.50;99.90
56725;DHT22;42608;52.776;6.968;2023-02-23T07:57:33;7.50;99.90
56725;DHT22;42608;52.776;6.968;2023-02-23T07:59:58;7.50;99.90
56725;DHT22;42608;52.776;6.968;2023-02-23T08:02:24;7.50;99.90
56725;DHT22;42608;52.776;6.968;2023-02-23T08:04:50;7.50;99.90
56725;DHT22;42608;52.776;6.968;2023-02-23T08:07:19;7.50;99.90
56725;DHT22;42608;52.776;6.968;2023-02-23T08:09:45;7.50;99.90
56725;DHT22;42608;52.776;6.968;2023-02-23T08:12:11;7.50;99.90
56725;DHT22;42608;52.776;6.968;2023-02-23T08:14:36;7.50;99.90
56725;DHT22;42608;52.776;6.968;2023-02-23T08:17:02;7.50;99.90
56725;DHT22;42608;52.776;6.968;2023-02-23T08:19:27;7.50;99.90
56725;DHT22;42608;52.776;6.968;2023-02-23T08:21:53;7.50;99.90
56725;DHT22;42608;52.776;6.968;2023-02-23T08:24:20;7.50;99.90
56725;DHT22;42608;52.776;6.968;2023-02-23T08:26:46;7.50;99.90
56725;DHT22;42608;52.776;6.968;2023-02-23T08:29:15;7.50;99.90
56725;DHT22;42608;52.776;6.968;2023-02-23T08:31:41;7.50;99.90
56725;DHT22;42608;52.776;6.968;2023-02-23T08:34:06;7.60;99.90
56725;DHT22;42608;52.776;6.968;2023-02-23T08:36:32;7.60;99.90
56725;DHT22;42608;52.776;6.968;2023-02-23T08:38:58;7.60;99.90
56725;DHT22;42608;52.776;6.968;2023-02-23T08:41:25;7.60;99.90
56725;DHT22;42608;52.776;6.968;2023-02-23T08:43:52;7.60;99.90
56725;DHT22;42608;52.776;6.968;2023-02-23T08:46:18;7.60;99.90
56725;DHT22;42608;52.776;6.968;2023-02-23T08:48:45;7.60;99.90
56725;DHT22;42608;52.776;6.968;2023-02-23T08:51:12;7.60;99.90
56725;DHT22;42608;52.776;6.968;2023-02-23T08:53:39;7.60;99.90
56725;DHT22;42608;52.776;6.968;2023-02-23T08:56:06;7.60;99.90
56725;DHT22;42608;52.776;6.968;2023-02-23T08:58:34;7.60;99.90
56725;DHT22;42608;52.776;6.968;2023-02-23T09:01:00;7.60;99.90
56725;DHT22;42608;52.776;6.968;2023-02-23T09:03:27;7.60;99.90
56725;DHT22;42608;52.776;6.968;2023-02-23T09:05:55;7.60;99.90
56725;DHT22;42608;52.776;6.968;2023-02-23T09:08:21;7.60;99.90
56725;DHT22;42608;52.776;6.968;2023-02-23T09:10:47;7.60;99.90
56725;DHT22;42608;52.776;6.968;2023-02-23T09:13:13;7.60;99.90
56725;DHT22;42608;52.776;6.968;2023-02-23T09:15:40;7.60;99.90
56725;DHT22;42608;52.776;6.968;2023-02-23T09:18:10;7.70;99.90
56725;DHT22;42608;52.776;6.968;2023-02-23T09:20:40;7.60;99.90
56725;DHT22;42608;52.776;6.968;2023-02-23T09:23:06;7.70;99.90
56725;DHT22;42608;52.776;6.968;2023-02-23T09:25:32;7.60;99.90
56725;DHT22;42608;52.776;6.968;2023-02-23T09:27:57;7.60;99.90
56725;DHT22;42608;52.776;6.968;2023-02-23T09:30:25;7.70;99.90
56725;DHT22;42608;52.776;6.968;2023-02-23T09:32:53;7.70;99.90
56725;DHT22;42608;52.776;6.968;2023-02-23T09:35:21;7.70;99.90
56725;DHT22;42608;52.776;6.968;2023-02-23T09:37:50;7.70;99.90
56725;DHT22;42608;52.776;6.968;2023-02-23T09:40:21;7.70;99.90
56725;DHT22;42608;52.776;6.968;2023-02-23T09:42:57;7.70;99.90
56725;DHT22;42608;52.776;6.968;2023-02-23T09:45:29;7.70;99.90
56725;DHT22;42608;52.776;6.968;2023-02-23T09:48:18;7.70;99.90
56725;DHT22;42608;52.776;6.968;2023-02-23T09:50:50;7.60;99.90
56725;DHT22;42608;52.776;6.968;2023-02-23T09:55:45;7.60;99.90
56725;DHT22;42608;52.776;6.968;2023-02-23T09:58:25;7.60;99.90
56725;DHT22;42608;52.776;6.968;2023-02-23T10:01:15;7.60;99.90
56725;DHT22;42608;52.776;6.968;2023-02-23T10:06:44;7.60;99.90
56725;DHT22;42608;52.776;6.968;2023-02-23T10:19:47;7.60;99.90
56725;DHT22;42608;52.776;6.968;2023-02-23T10:22:15;7.60;99.90
56725;DHT22;42608;52.776;6.968;2023-02-23T10:24:45;7.60;99.90
56725;DHT22;42608;52.776;6.968;2023-02-23T10:27:19;7.70;99.90
56725;DHT22;42608;52.776;6.968;2023-02-23T10:29:52;7.70;99.90
56725;DHT22;42608;52.776;6.968;2023-02-23T10:35:28;7.80;99.90
56725;DHT22;42608;52.776;6.968;2023-02-23T10:37:54;7.80;99.90
56725;DHT22;42608;52.776;6.968;2023-02-23T10:40:32;7.90;99.90
56725;DHT22;42608;52.776;6.968;2023-02-23T10:43:01;7.90;99.90
56725;DHT22;42608;52.776;6.968;2023-02-23T10:45:28;7.90;99.90
56725;DHT22;42608;52.776;6.968;2023-02-23T10:48:06;7.90;99.90
56725;DHT22;42608;52.776;6.968;2023-02-23T10:50:35;7.90;99.90
56725;DHT22;42608;52.776;6.968;2023-02-23T10:55:41;7.90;99.90
56725;DHT22;42608;52.776;6.968;2023-02-23T10:58:14;7.90;99.90
56725;DHT22;42608;52.776;6.968;2023-02-23T11:00:52;7.90;99.90
56725;DHT22;42608;52.776;6.968;2023-02-23T11:03:39;7.90;99.90
56725;DHT22;42608;52.776;6.968;2023-02-23T11:06:06;7.90;99.90
56725;DHT22;42608;52.776;6.968;2023-02-23T11:08:50;7.90;99.90
56725;DHT22;42608;52.776;6.968;2023-02-23T11:11:22;7.90;99.90
56725;DHT22;42608;52.776;6.968;2023-02-23T11:13:50;7.90;99.90
56725;DHT22;42608;52.776;6.968;2023-02-23T11:16:25;8.00;99.90
56725;DHT22;42608;52.776;6.968;2023-02-23T11:18:59;8.00;99.90
56725;DHT22;42608;52.776;6.968;2023-02-23T11:21:31;8.00;99.90
56725;DHT22;42608;52.776;6.968;2023-02-23T11:24:18;8.10;99.90
56725;DHT22;42608;52.776;6.968;2023-02-23T11:26:48;8.10;99.90
56725;DHT22;42608;52.776;6.968;2023-02-23T11:29:41;8.10;99.90
56725;DHT22;42608;52.776;6.968;2023-02-23T11:32:14;8.10;99.90
56725;DHT22;42608;52.776;6.968;2023-02-23T11:34:40;8.00;99.90
56725;DHT22;42608;52.776;6.968;2023-02-23T11:37:20;8.00;99.90
56725;DHT22;42608;52.776;6.968;2023-02-23T11:40:00;8.00;99.90
56725;DHT22;42608;52.776;6.968;2023-02-23T11:42:30;8.10;99.90
56725;DHT22;42608;52.776;6.968;2023-02-23T11:45:14;8.10;99.90
56725;DHT22;42608;52.776;6.968;2023-02-23T11:47:44;8.10;99.90
56725;DHT22;42608;52.776;6.968;2023-02-23T11:50:32;8.10;99.90
56725;DHT22;42608;52.776;6.968;2023-02-23T11:53:14;8.10;99.90
56725;DHT22;42608;52.776;6.968;2023-02-23T11:55:49;8.10;99.90
56725;DHT22;42608;52.776;6.968;2023-02-23T11:58:30;8.10;99.90
56725;DHT22;42608;52.776;6.968;2023-02-23T12:01:06;8.20;99.90
56725;DHT22;42608;52.776;6.968;2023-02-23T12:03:39;8.10;99.90
56725;DHT22;42608;52.776;6.968;2023-02-23T12:06:09;8.10;99.90
56725;DHT22;42608;52.776;6.968;2023-02-23T12:08:47;8.10;99.90
56725;DHT22;42608;52.776;6.968;2023-02-23T12:11:21;8.20;99.90
56725;DHT22;42608;52.776;6.968;2023-02-23T12:13:58;8.20;99.90
56725;DHT22;42608;52.776;6.968;2023-02-23T12:16:42;8.30;99.90
56725;DHT22;42608;52.776;6.968;2023-02-23T12:19:24;8.30;99.90
56725;DHT22;42608;52.776;6.968;2023-02-23T12:22:03;8.30;99.90
56725;DHT22;42608;52.776;6.968;2023-02-23T12:27:03;8.30;99.90
56725;DHT22;42608;52.776;6.968;2023-02-23T12:32:55;8.40;99.90
56725;DHT22;42608;52.776;6.968;2023-02-23T12:37:57;8.40;99.90
56725;DHT22;42608;52.776;6.968;2023-02-23T12:40:28;8.40;99.90
56725;DHT22;42608;52.776;6.968;2023-02-23T12:45:48;8.50;99.90
56725;DHT22;42608;52.776;6.968;2023-02-23T12:51:34;8.40;99.90
56725;DHT22;42608;52.776;6.968;2023-02-23T12:54:01;8.40;99.90
56725;DHT22;42608;52.776;6.968;2023-02-23T13:02:11;8.40;99.90
56725;DHT22;42608;52.776;6.968;2023-02-23T13:10:49;8.40;99.90
56725;DHT22;42608;52.776;6.968;2023-02-23T13:13:32;8.40;99.90
56725;DHT22;42608;52.776;6.968;2023-02-23T13:16:23;8.40;99.90
56725;DHT22;42608;52.776;6.968;2023-02-23T13:19:22;8.30;99.90
56725;DHT22;42608;52.776;6.968;2023-02-23T13:24:49;8.30;99.90
56725;DHT22;42608;52.776;6.968;2023-02-23T13:27:26;8.30;99.90
56725;DHT22;42608;52.776;6.968;2023-02-23T13:29:55;8.30;99.90
56725;DHT22;42608;52.776;6.968;2023-02-23T13:32:26;8.30;99.90
56725;DHT22;42608;52.776;6.968;2023-02-23T13:43:22;8.40;99.90
56725;DHT22;42608;52.776;6.968;2023-02-23T13:51:42;8.50;99.90
56725;DHT22;42608;52.776;6.968;2023-02-23T13:54:31;8.50;99.90
56725;DHT22;42608;52.776;6.968;2023-02-23T13:57:11;8.50;99.90
56725;DHT22;42608;52.776;6.968;2023-02-23T13:59:40;8.60;99.90
56725;DHT22;42608;52.776;6.968;2023-02-23T14:05:23;8.50;99.90
56725;DHT22;42608;52.776;6.968;2023-02-23T14:08:01;8.50;99.90
56725;DHT22;42608;52.776;6.968;2023-02-23T14:10:39;8.50;99.90
56725;DHT22;42608;52.776;6.968;2023-02-23T14:18:49;8.50;99.90
56725;DHT22;42608;52.776;6.968;2023-02-23T14:23:29;8.50;99.90
56725;DHT22;42608;52.776;6.968;2023-02-23T14:31:55;8.50;99.90
56725;DHT22;42608;52.776;6.968;2023-02-23T14:34:22;8.50;99.90
56725;DHT22;42608;52.776;6.968;2023-02-23T14:36:48;8.50;99.90
56725;DHT22;42608;52.776;6.968;2023-02-23T14:39:26;8.40;99.90
56725;DHT22;42608;52.776;6.968;2023-02-23T14:41:56;8.50;99.90
56725;DHT22;42608;52.776;6.968;2023-02-23T14:44:40;8.50;99.90
56725;DHT22;42608;52.776;6.968;2023-02-23T14:47:40;8.40;99.90
56725;DHT22;42608;52.776;6.968;2023-02-23T14:50:12;8.40;99.90
56725;DHT22;42608;52.776;6.968;2023-02-23T14:52:42;8.40;99.90
56725;DHT22;42608;52.776;6.968;2023-02-23T14:55:15;8.40;99.90
56725;DHT22;42608;52.776;6.968;2023-02-23T14:57:42;8.40;99.90
56725;DHT22;42608;52.776;6.968;2023-02-23T15:00:19;8.40;99.90
56725;DHT22;42608;52.776;6.968;2023-02-23T15:02:55;8.40;99.90
56725;DHT22;42608;52.776;6.968;2023-02-23T15:05:27;8.40;99.90
56725;DHT22;42608;52.776;6.968;2023-02-23T15:07:55;8.40;99.90
56725;DHT22;42608;52.776;6.968;2023-02-23T15:10:46;8.40;99.90
56725;DHT22;42608;52.776;6.968;2023-02-23T15:13:25;8.40;99.90
56725;DHT22;42608;52.776;6.968;2023-02-23T15:15:51;8.40;99.90
56725;DHT22;42608;52.776;6.968;2023-02-23T15:18:22;8.30;99.90
56725;DHT22;42608;52.776;6.968;2023-02-23T15:20:50;8.10;99.90
56725;DHT22;42608;52.776;6.968;2023-02-23T15:23:17;7.90;99.90
56725;DHT22;42608;52.776;6.968;2023-02-23T15:25:43;7.80;99.90
56725;DHT22;42608;52.776;6.968;2023-02-23T15:28:28;7.60;99.90
56725;DHT22;42608;52.776;6.968;2023-02-23T15:31:01;7.60;99.90
56725;DHT22;42608;52.776;6.968;2023-02-23T15:33:28;7.40;99.90
56725;DHT22;42608;52.776;6.968;2023-02-23T15:36:15;7.30;99.90
56725;DHT22;42608;52.776;6.968;2023-02-23T15:38:48;7.20;99.90
56725;DHT22;42608;52.776;6.968;2023-02-23T15:41:26;7.20;99.90
56725;DHT22;42608;52.776;6.968;2023-02-23T15:44:04;7.10;99.90
56725;DHT22;42608;52.776;6.968;2023-02-23T15:46:32;7.10;99.90
56725;DHT22;42608;52.776;6.968;2023-02-23T15:49:00;7.00;99.90
56725;DHT22;42608;52.776;6.968;2023-02-23T15:54:02;6.90;99.90
56725;DHT22;42608;52.776;6.968;2023-02-23T15:56:33;6.80;99.90
56725;DHT22;42608;52.776;6.968;2023-02-23T15:59:10;6.80;99.90
56725;DHT22;42608;52.776;6.968;2023-02-23T16:01:44;6.80;99.90
56725;DHT22;42608;52.776;6.968;2023-02-23T16:04:15;6.70;99.90
56725;DHT22;42608;52.776;6.968;2023-02-23T16:06:54;6.60;99.90
56725;DHT22;42608;52.776;6.968;2023-02-23T16:09:30;6.60;99.90
56725;DHT22;42608;52.776;6.968;2023-02-23T16:12:00;6.60;99.90
56725;DHT22;42608;52.776;6.968;2023-02-23T16:14:43;6.60;99.90
56725;DHT22;42608;52.776;6.968;2023-02-23T16:19:49;6.50;99.90
56725;DHT22;42608;52.776;6.968;2023-02-23T16:22:20;6.40;99.90
56725;DHT22;42608;52.776;6.968;2023-02-23T16:25:05;6.40;99.90
56725;DHT22;42608;52.776;6.968;2023-02-23T16:27:32;6.40;99.90
56725;DHT22;42608;52.776;6.968;2023-02-23T16:30:04;6.30;99.90
56725;DHT22;42608;52.776;6.968;2023-02-23T16:32:34;6.30;99.90
56725;DHT22;42608;52.776;6.968;2023-02-23T16:35:08;6.30;99.90
56725;DHT22;42608;52.776;6.968;2023-02-23T16:37:54;6.30;99.90
56725;DHT22;42608;52.776;6.968;2023-02-23T16:40:21;6.30;99.90
56725;DHT22;42608;52.776;6.968;2023-02-23T16:42:46;6.20;99.90
56725;DHT22;42608;52.776;6.968;2023-02-23T16:45:14;6.20;99.90
56725;DHT22;42608;52.776;6.968;2023-02-23T16:47:43;6.20;99.90
56725;DHT22;42608;52.776;6.968;2023-02-23T16:50:20;6.20;99.90
56725;DHT22;42608;52.776;6.968;2023-02-23T16:52:47;6.30;99.90
56725;DHT22;42608;52.776;6.968;2023-02-23T16:55:16;6.20;99.90
56725;DHT22;42608;52.776;6.968;2023-02-23T16:57:45;6.20;99.90
56725;DHT22;42608;52.776;6.968;2023-02-23T17:00:16;6.20;99.90
56725;DHT22;42608;52.776;6.968;2023-02-23T17:02:45;6.20;99.90
56725;DHT22;42608;52.776;6.968;2023-02-23T17:05:12;6.20;99.90
56725;DHT22;42608;52.776;6.968;2023-02-23T17:07:38;6.20;99.90
56725;DHT22;42608;52.776;6.968;2023-02-23T17:10:05;6.20;99.90
56725;DHT22;42608;52.776;6.968;2023-02-23T17:12:31;6.30;99.90
56725;DHT22;42608;52.776;6.968;2023-02-23T17:14:57;6.30;99.90
56725;DHT22;42608;52.776;6.968;2023-02-23T17:17:22;6.20;99.90
56725;DHT22;42608;52.776;6.968;2023-02-23T17:19:48;6.20;99.90
56725;DHT22;42608;52.776;6.968;2023-02-23T17:22:14;6.20;99.90
56725;DHT22;42608;52.776;6.968;2023-02-23T17:24:41;6.20;99.90
56725;DHT22;42608;52.776;6.968;2023-02-23T17:27:07;6.30;99.90
56725;DHT22;42608;52.776;6.968;2023-02-23T17:29:32;6.20;99.90
56725;DHT22;42608;52.776;6.968;2023-02-23T17:31:58;6.20;99.90
56725;DHT22;42608;52.776;6.968;2023-02-23T17:34:26;6.20;99.90
56725;DHT22;42608;52.776;6.968;2023-02-23T17:36:52;6.20;99.90
56725;DHT22;42608;52.776;6.968;2023-02-23T17:39:17;6.20;99.90
56725;DHT22;42608;52.776;6.968;2023-02-23T17:41:43;6.10;99.90
56725;DHT22;42608;52.776;6.968;2023-02-23T17:44:09;6.20;99.90
56725;DHT22;42608;52.776;6.968;2023-02-23T17:46:35;6.20;99.90
56725;DHT22;42608;52.776;6.968;2023-02-23T17:49:01;6.10;99.90
56725;DHT22;42608;52.776;6.968;2023-02-23T17:51:27;6.10;99.90
56725;DHT22;42608;52.776;6.968;2023-02-23T17:53:53;6.10;99.90
56725;DHT22;42608;52.776;6.968;2023-02-23T17:56:19;6.10;99.90
56725;DHT22;42608;52.776;6.968;2023-02-23T17:58:46;6.10;99.90
56725;DHT22;42608;52.776;6.968;2023-02-23T18:01:12;6.10;99.90
56725;DHT22;42608;52.776;6.968;2023-02-23T18:03:38;6.10;99.90
56725;DHT22;42608;52.776;6.968;2023-02-23T18:06:07;6.10;99.90
56725;DHT22;42608;52.776;6.968;2023-02-23T18:08:34;6.10;99.90
56725;DHT22;42608;52.776;6.968;2023-02-23T18:11:00;6.10;99.90
56725;DHT22;42608;52.776;6.968;2023-02-23T18:13:27;6.10;99.90
56725;DHT22;42608;52.776;6.968;2023-02-23T18:15:57;6.10;99.90
56725;DHT22;42608;52.776;6.968;2023-02-23T18:18:23;6.10;99.90
56725;DHT22;42608;52.776;6.968;2023-02-23T18:20:59;6.10;99.90
56725;DHT22;42608;52.776;6.968;2023-02-23T18:23:26;6.10;99.90